sensor_id;sensor_type;location;lat;lon;timestamp;P1;durP1;ratioP1;P2;durP2;ratioP2
45236;SDS011;30973;51.442;3.580;2023-06-24T00:02:16;4.57;;;3.33;;
45236;SDS011;30973;51.442;3.580;2023-06-24T00:04:42;4.53;;;3.03;;
45236;SDS011;30973;51.442;3.580;2023-06-24T00:07:09;4.45;;;3.42;;
45236;SDS011;30973;51.442;3.580;2023-06-24T00:09:36;4.72;;;3.38;;
45236;SDS011;30973;51.442;3.580;2023-06-24T00:12:02;4.97;;;3.33;;
45236;SDS011;30973;51.442;3.580;2023-06-24T00:14:29;3.90;;;3.35;;
45236;SDS011;30973;51.442;3.580;2023-06-24T00:16:56;4.68;;;3.60;;
45236;SDS011;30973;51.442;3.580;2023-06-24T00:19:23;4.20;;;3.30;;
45236;SDS011;30973;51.442;3.580;2023-06-24T00:21:51;6.75;;;3.38;;
45236;SDS011;30973;51.442;3.580;2023-06-24T00:24:18;6.45;;;3.63;;
45236;SDS011;30973;51.442;3.580;2023-06-24T00:26:46;4.97;;;3.72;;
45236;SDS011;30973;51.442;3.580;2023-06-24T00:29:12;4.82;;;3.35;;
45236;SDS011;30973;51.442;3.580;2023-06-24T00:31:39;5.60;;;3.63;;
45236;SDS011;30973;51.442;3.580;2023-06-24T00:34:06;4.85;;;3.70;;
45236;SDS011;30973;51.442;3.580;2023-06-24T00:36:33;5.72;;;3.70;;
45236;SDS011;30973;51.442;3.580;2023-06-24T00:39:02;5.60;;;3.53;;
45236;SDS011;30973;51.442;3.580;2023-06-24T00:41:30;4.72;;;3.58;;
45236;SDS011;30973;51.442;3.580;2023-06-24T00:43:57;5.15;;;3.88;;
45236;SDS011;30973;51.442;3.580;2023-06-24T00:46:24;5.47;;;3.90;;
45236;SDS011;30973;51.442;3.580;2023-06-24T00:48:55;5.78;;;3.83;;
45236;SDS011;30973;51.442;3.580;2023-06-24T00:51:24;4.40;;;3.53;;
45236;SDS011;30973;51.442;3.580;2023-06-24T00:53:53;6.50;;;3.95;;
45236;SDS011;30973;51.442;3.580;2023-06-24T00:56:25;5.45;;;4.00;;
45236;SDS011;30973;51.442;3.580;2023-06-24T00:58:53;6.55;;;4.00;;
45236;SDS011;30973;51.442;3.580;2023-06-24T01:01:20;5.45;;;3.88;;
45236;SDS011;30973;51.442;3.580;2023-06-24T01:03:47;4.38;;;3.50;;
45236;SDS011;30973;51.442;3.580;2023-06-24T01:06:14;5.68;;;4.00;;
45236;SDS011;30973;51.442;3.580;2023-06-24T01:08:41;5.43;;;3.80;;
45236;SDS011;30973;51.442;3.580;2023-06-24T01:11:08;5.68;;;3.75;;
45236;SDS011;30973;51.442;3.580;2023-06-24T01:13:34;7.05;;;4.10;;
45236;SDS011;30973;51.442;3.580;2023-06-24T01:16:03;6.93;;;4.22;;
45236;SDS011;30973;51.442;3.580;2023-06-24T01:18:40;6.93;;;4.05;;
45236;SDS011;30973;51.442;3.580;2023-06-24T01:21:13;7.03;;;4.45;;
45236;SDS011;30973;51.442;3.580;2023-06-24T01:23:55;6.70;;;4.10;;
45236;SDS011;30973;51.442;3.580;2023-06-24T01:36:46;8.52;;;4.32;;
45236;SDS011;30973;51.442;3.580;2023-06-24T01:39:13;7.05;;;4.75;;
45236;SDS011;30973;51.442;3.580;2023-06-24T01:41:44;7.75;;;5.03;;
45236;SDS011;30973;51.442;3.580;2023-06-24T01:44:13;7.20;;;4.82;;
45236;SDS011;30973;51.442;3.580;2023-06-24T01:46:41;7.18;;;5.03;;
45236;SDS011;30973;51.442;3.580;2023-06-24T01:49:11;7.68;;;5.25;;
45236;SDS011;30973;51.442;3.580;2023-06-24T01:51:39;7.70;;;5.25;;
45236;SDS011;30973;51.442;3.580;2023-06-24T01:54:10;6.47;;;5.22;;
45236;SDS011;30973;51.442;3.580;2023-06-24T01:56:37;7.38;;;5.55;;
45236;SDS011;30973;51.442;3.580;2023-06-24T01:59:04;8.43;;;5.70;;
45236;SDS011;30973;51.442;3.580;2023-06-24T02:01:31;7.82;;;5.80;;
45236;SDS011;30973;51.442;3.580;2023-06-24T02:03:58;6.80;;;5.18;;
45236;SDS011;30973;51.442;3.580;2023-06-24T02:06:26;7.35;;;5.70;;
45236;SDS011;30973;51.442;3.580;2023-06-24T02:08:57;8.02;;;5.22;;
45236;SDS011;30973;51.442;3.580;2023-06-24T02:11:25;6.90;;;5.45;;
45236;SDS011;30973;51.442;3.580;2023-06-24T02:13:53;7.53;;;5.53;;
45236;SDS011;30973;51.442;3.580;2023-06-24T02:16:21;9.55;;;5.82;;
45236;SDS011;30973;51.442;3.580;2023-06-24T02:18:48;8.57;;;6.30;;
45236;SDS011;30973;51.442;3.580;2023-06-24T02:21:18;8.02;;;6.22;;
45236;SDS011;30973;51.442;3.580;2023-06-24T02:23:46;7.57;;;5.82;;
45236;SDS011;30973;51.442;3.580;2023-06-24T02:26:14;9.40;;;5.68;;
45236;SDS011;30973;51.442;3.580;2023-06-24T02:28:41;8.63;;;6.18;;
45236;SDS011;30973;51.442;3.580;2023-06-24T02:31:08;8.88;;;6.50;;
45236;SDS011;30973;51.442;3.580;2023-06-24T02:33:36;12.30;;;6.53;;
45236;SDS011;30973;51.442;3.580;2023-06-24T02:36:03;7.75;;;6.32;;
45236;SDS011;30973;51.442;3.580;2023-06-24T02:38:30;8.60;;;6.50;;
45236;SDS011;30973;51.442;3.580;2023-06-24T02:40:56;9.93;;;6.38;;
45236;SDS011;30973;51.442;3.580;2023-06-24T02:43:24;7.35;;;6.10;;
45236;SDS011;30973;51.442;3.580;2023-06-24T02:45:50;10.10;;;6.65;;
45236;SDS011;30973;51.442;3.580;2023-06-24T02:48:18;9.25;;;6.85;;
45236;SDS011;30973;51.442;3.580;2023-06-24T02:50:46;9.65;;;6.60;;
45236;SDS011;30973;51.442;3.580;2023-06-24T02:53:14;9.70;;;6.82;;
45236;SDS011;30973;51.442;3.580;2023-06-24T02:55:40;10.45;;;7.35;;
45236;SDS011;30973;51.442;3.580;2023-06-24T02:58:08;8.38;;;6.65;;
45236;SDS011;30973;51.442;3.580;2023-06-24T03:00:54;10.00;;;6.90;;
45236;SDS011;30973;51.442;3.580;2023-06-24T03:03:31;10.18;;;7.38;;
45236;SDS011;30973;51.442;3.580;2023-06-24T03:05:59;10.85;;;7.88;;
45236;SDS011;30973;51.442;3.580;2023-06-24T03:08:28;11.05;;;7.20;;
45236;SDS011;30973;51.442;3.580;2023-06-24T03:10:56;10.20;;;7.50;;
45236;SDS011;30973;51.442;3.580;2023-06-24T03:13:24;9.35;;;7.20;;
45236;SDS011;30973;51.442;3.580;2023-06-24T03:16:11;10.40;;;6.95;;
45236;SDS011;30973;51.442;3.580;2023-06-24T03:18:51;12.13;;;8.48;;
45236;SDS011;30973;51.442;3.580;2023-06-24T03:21:19;9.85;;;7.50;;
45236;SDS011;30973;51.442;3.580;2023-06-24T03:23:47;12.05;;;7.32;;
45236;SDS011;30973;51.442;3.580;2023-06-24T03:26:15;10.30;;;7.70;;
45236;SDS011;30973;51.442;3.580;2023-06-24T03:28:42;12.63;;;8.23;;
45236;SDS011;30973;51.442;3.580;2023-06-24T03:31:14;10.30;;;8.32;;
45236;SDS011;30973;51.442;3.580;2023-06-24T03:33:42;15.45;;;7.80;;
45236;SDS011;30973;51.442;3.580;2023-06-24T03:36:12;11.70;;;8.30;;
45236;SDS011;30973;51.442;3.580;2023-06-24T03:38:40;10.73;;;8.00;;
45236;SDS011;30973;51.442;3.580;2023-06-24T03:41:07;11.68;;;8.30;;
45236;SDS011;30973;51.442;3.580;2023-06-24T03:43:34;9.15;;;7.53;;
45236;SDS011;30973;51.442;3.580;2023-06-24T03:46:00;11.10;;;7.97;;
45236;SDS011;30973;51.442;3.580;2023-06-24T03:48:27;11.25;;;8.20;;
45236;SDS011;30973;51.442;3.580;2023-06-24T03:50:54;10.52;;;8.00;;
45236;SDS011;30973;51.442;3.580;2023-06-24T03:53:21;9.73;;;7.80;;
45236;SDS011;30973;51.442;3.580;2023-06-24T03:55:47;11.85;;;7.80;;
45236;SDS011;30973;51.442;3.580;2023-06-24T03:58:14;11.02;;;8.55;;
45236;SDS011;30973;51.442;3.580;2023-06-24T04:00:43;10.60;;;8.35;;
45236;SDS011;30973;51.442;3.580;2023-06-24T04:03:10;11.68;;;9.00;;
45236;SDS011;30973;51.442;3.580;2023-06-24T04:05:38;12.23;;;9.07;;
45236;SDS011;30973;51.442;3.580;2023-06-24T04:08:05;12.07;;;8.85;;
45236;SDS011;30973;51.442;3.580;2023-06-24T04:10:33;13.48;;;8.82;;
45236;SDS011;30973;51.442;3.580;2023-06-24T04:12:59;11.70;;;8.90;;
45236;SDS011;30973;51.442;3.580;2023-06-24T04:15:26;10.35;;;8.68;;
45236;SDS011;30973;51.442;3.580;2023-06-24T04:17:53;11.57;;;8.55;;
45236;SDS011;30973;51.442;3.580;2023-06-24T04:20:19;10.70;;;8.48;;
45236;SDS011;30973;51.442;3.580;2023-06-24T04:22:46;12.60;;;8.77;;
45236;SDS011;30973;51.442;3.580;2023-06-24T04:25:15;13.40;;;8.90;;
45236;SDS011;30973;51.442;3.580;2023-06-24T04:27:41;12.18;;;9.10;;
45236;SDS011;30973;51.442;3.580;2023-06-24T04:30:08;12.38;;;9.32;;
45236;SDS011;30973;51.442;3.580;2023-06-24T04:32:35;17.33;;;9.27;;
45236;SDS011;30973;51.442;3.580;2023-06-24T04:35:02;15.30;;;10.95;;
45236;SDS011;30973;51.442;3.580;2023-06-24T04:37:30;12.65;;;9.93;;
45236;SDS011;30973;51.442;3.580;2023-06-24T04:39:56;12.98;;;9.82;;
45236;SDS011;30973;51.442;3.580;2023-06-24T04:42:23;15.68;;;10.15;;
45236;SDS011;30973;51.442;3.580;2023-06-24T04:44:50;14.98;;;9.98;;
45236;SDS011;30973;51.442;3.580;2023-06-24T04:47:17;12.95;;;9.63;;
45236;SDS011;30973;51.442;3.580;2023-06-24T04:49:44;13.82;;;9.98;;
45236;SDS011;30973;51.442;3.580;2023-06-24T04:52:11;12.70;;;9.43;;
45236;SDS011;30973;51.442;3.580;2023-06-24T04:54:38;13.85;;;10.73;;
45236;SDS011;30973;51.442;3.580;2023-06-24T04:57:07;12.15;;;10.18;;
45236;SDS011;30973;51.442;3.580;2023-06-24T04:59:34;19.42;;;11.52;;
45236;SDS011;30973;51.442;3.580;2023-06-24T05:02:00;16.27;;;11.18;;
45236;SDS011;30973;51.442;3.580;2023-06-24T05:04:27;15.20;;;11.52;;
45236;SDS011;30973;51.442;3.580;2023-06-24T05:06:54;14.02;;;9.95;;
45236;SDS011;30973;51.442;3.580;2023-06-24T05:09:20;15.30;;;10.05;;
45236;SDS011;30973;51.442;3.580;2023-06-24T05:11:47;11.80;;;10.38;;
45236;SDS011;30973;51.442;3.580;2023-06-24T05:14:13;17.35;;;11.63;;
45236;SDS011;30973;51.442;3.580;2023-06-24T05:16:40;14.52;;;11.20;;
45236;SDS011;30973;51.442;3.580;2023-06-24T05:19:06;15.38;;;11.15;;
45236;SDS011;30973;51.442;3.580;2023-06-24T05:21:33;16.67;;;12.23;;
45236;SDS011;30973;51.442;3.580;2023-06-24T05:23:59;16.30;;;12.85;;
45236;SDS011;30973;51.442;3.580;2023-06-24T05:26:26;14.40;;;11.20;;
45236;SDS011;30973;51.442;3.580;2023-06-24T05:28:52;16.13;;;11.55;;
45236;SDS011;30973;51.442;3.580;2023-06-24T05:31:19;15.35;;;11.82;;
45236;SDS011;30973;51.442;3.580;2023-06-24T05:33:46;17.80;;;12.07;;
45236;SDS011;30973;51.442;3.580;2023-06-24T05:36:12;19.33;;;11.73;;
45236;SDS011;30973;51.442;3.580;2023-06-24T05:38:39;15.05;;;11.73;;
45236;SDS011;30973;51.442;3.580;2023-06-24T05:41:05;14.10;;;10.98;;
45236;SDS011;30973;51.442;3.580;2023-06-24T05:43:32;15.40;;;11.30;;
45236;SDS011;30973;51.442;3.580;2023-06-24T05:45:59;12.70;;;10.88;;
45236;SDS011;30973;51.442;3.580;2023-06-24T05:48:25;13.90;;;10.85;;
45236;SDS011;30973;51.442;3.580;2023-06-24T05:50:52;15.23;;;11.63;;
45236;SDS011;30973;51.442;3.580;2023-06-24T05:53:18;14.65;;;11.95;;
45236;SDS011;30973;51.442;3.580;2023-06-24T05:55:45;15.23;;;12.13;;
45236;SDS011;30973;51.442;3.580;2023-06-24T05:58:11;13.57;;;11.15;;
45236;SDS011;30973;51.442;3.580;2023-06-24T06:00:38;17.15;;;11.52;;
45236;SDS011;30973;51.442;3.580;2023-06-24T06:03:04;17.05;;;12.30;;
45236;SDS011;30973;51.442;3.580;2023-06-24T06:05:31;15.43;;;12.13;;
45236;SDS011;30973;51.442;3.580;2023-06-24T06:07:58;15.95;;;11.82;;
45236;SDS011;30973;51.442;3.580;2023-06-24T06:10:25;15.00;;;11.85;;
45236;SDS011;30973;51.442;3.580;2023-06-24T06:12:51;15.38;;;12.05;;
45236;SDS011;30973;51.442;3.580;2023-06-24T06:15:19;15.18;;;11.27;;
45236;SDS011;30973;51.442;3.580;2023-06-24T06:17:46;15.32;;;12.43;;
45236;SDS011;30973;51.442;3.580;2023-06-24T06:20:12;15.20;;;12.20;;
45236;SDS011;30973;51.442;3.580;2023-06-24T06:22:39;15.05;;;12.18;;
45236;SDS011;30973;51.442;3.580;2023-06-24T06:25:06;16.10;;;12.40;;
45236;SDS011;30973;51.442;3.580;2023-06-24T06:27:33;15.85;;;11.68;;
45236;SDS011;30973;51.442;3.580;2023-06-24T06:30:00;14.52;;;11.57;;
45236;SDS011;30973;51.442;3.580;2023-06-24T06:32:26;17.23;;;12.30;;
45236;SDS011;30973;51.442;3.580;2023-06-24T06:34:56;16.13;;;11.90;;
45236;SDS011;30973;51.442;3.580;2023-06-24T06:37:22;13.95;;;12.02;;
45236;SDS011;30973;51.442;3.580;2023-06-24T06:39:49;14.52;;;11.75;;
45236;SDS011;30973;51.442;3.580;2023-06-24T06:42:15;14.43;;;12.07;;
45236;SDS011;30973;51.442;3.580;2023-06-24T06:44:42;15.15;;;12.20;;
45236;SDS011;30973;51.442;3.580;2023-06-24T06:47:09;13.52;;;11.25;;
45236;SDS011;30973;51.442;3.580;2023-06-24T06:49:36;14.63;;;11.13;;
45236;SDS011;30973;51.442;3.580;2023-06-24T06:52:02;18.02;;;11.55;;
45236;SDS011;30973;51.442;3.580;2023-06-24T06:54:29;15.38;;;11.80;;
45236;SDS011;30973;51.442;3.580;2023-06-24T06:56:59;15.38;;;12.43;;
45236;SDS011;30973;51.442;3.580;2023-06-24T06:59:26;15.00;;;12.43;;
45236;SDS011;30973;51.442;3.580;2023-06-24T07:01:53;14.52;;;11.60;;
45236;SDS011;30973;51.442;3.580;2023-06-24T07:04:19;16.77;;;12.98;;
45236;SDS011;30973;51.442;3.580;2023-06-24T07:06:46;15.50;;;11.57;;
45236;SDS011;30973;51.442;3.580;2023-06-24T07:09:13;16.73;;;12.70;;
45236;SDS011;30973;51.442;3.580;2023-06-24T07:11:39;14.13;;;12.38;;
45236;SDS011;30973;51.442;3.580;2023-06-24T07:14:06;15.75;;;12.50;;
45236;SDS011;30973;51.442;3.580;2023-06-24T07:16:32;14.32;;;12.20;;
45236;SDS011;30973;51.442;3.580;2023-06-24T07:18:59;17.08;;;13.05;;
45236;SDS011;30973;51.442;3.580;2023-06-24T07:21:25;15.88;;;12.20;;
45236;SDS011;30973;51.442;3.580;2023-06-24T07:23:52;14.38;;;12.48;;
45236;SDS011;30973;51.442;3.580;2023-06-24T07:26:19;19.15;;;12.90;;
45236;SDS011;30973;51.442;3.580;2023-06-24T07:28:46;16.75;;;12.95;;
45236;SDS011;30973;51.442;3.580;2023-06-24T07:31:32;16.35;;;12.38;;
45236;SDS011;30973;51.442;3.580;2023-06-24T07:33:59;17.05;;;12.75;;
45236;SDS011;30973;51.442;3.580;2023-06-24T07:36:25;15.18;;;12.20;;
45236;SDS011;30973;51.442;3.580;2023-06-24T07:38:52;16.35;;;12.38;;
45236;SDS011;30973;51.442;3.580;2023-06-24T07:41:18;18.75;;;13.13;;
45236;SDS011;30973;51.442;3.580;2023-06-24T07:43:45;16.50;;;12.45;;
45236;SDS011;30973;51.442;3.580;2023-06-24T07:46:11;15.77;;;12.35;;
45236;SDS011;30973;51.442;3.580;2023-06-24T07:48:38;17.85;;;12.07;;
45236;SDS011;30973;51.442;3.580;2023-06-24T07:51:04;16.25;;;10.40;;
45236;SDS011;30973;51.442;3.580;2023-06-24T07:53:31;12.55;;;8.82;;
45236;SDS011;30973;51.442;3.580;2023-06-24T07:55:59;11.45;;;8.48;;
45236;SDS011;30973;51.442;3.580;2023-06-24T07:58:26;13.07;;;8.13;;
45236;SDS011;30973;51.442;3.580;2023-06-24T08:00:52;11.40;;;7.75;;
45236;SDS011;30973;51.442;3.580;2023-06-24T08:03:19;10.98;;;7.97;;
45236;SDS011;30973;51.442;3.580;2023-06-24T08:05:46;11.48;;;8.30;;
45236;SDS011;30973;51.442;3.580;2023-06-24T08:08:15;8.68;;;7.28;;
45236;SDS011;30973;51.442;3.580;2023-06-24T08:10:41;9.80;;;7.53;;
45236;SDS011;30973;51.442;3.580;2023-06-24T08:13:08;10.60;;;7.10;;
45236;SDS011;30973;51.442;3.580;2023-06-24T08:15:35;10.48;;;7.55;;
45236;SDS011;30973;51.442;3.580;2023-06-24T08:18:04;10.90;;;7.80;;
45236;SDS011;30973;51.442;3.580;2023-06-24T08:20:31;10.77;;;8.80;;
45236;SDS011;30973;51.442;3.580;2023-06-24T08:22:57;10.77;;;7.63;;
45236;SDS011;30973;51.442;3.580;2023-06-24T08:25:24;9.70;;;7.18;;
45236;SDS011;30973;51.442;3.580;2023-06-24T08:27:51;10.18;;;8.02;;
45236;SDS011;30973;51.442;3.580;2023-06-24T08:30:18;9.50;;;8.00;;
45236;SDS011;30973;51.442;3.580;2023-06-24T08:32:44;9.10;;;7.68;;
45236;SDS011;30973;51.442;3.580;2023-06-24T08:35:11;9.05;;;8.10;;
45236;SDS011;30973;51.442;3.580;2023-06-24T08:37:37;10.27;;;8.52;;
45236;SDS011;30973;51.442;3.580;2023-06-24T08:40:04;9.57;;;7.75;;
45236;SDS011;30973;51.442;3.580;2023-06-24T08:42:32;9.27;;;7.88;;
45236;SDS011;30973;51.442;3.580;2023-06-24T08:44:59;8.95;;;8.02;;
45236;SDS011;30973;51.442;3.580;2023-06-24T08:47:25;10.27;;;8.00;;
45236;SDS011;30973;51.442;3.580;2023-06-24T08:49:55;11.27;;;8.10;;
45236;SDS011;30973;51.442;3.580;2023-06-24T08:52:25;11.70;;;8.15;;
45236;SDS011;30973;51.442;3.580;2023-06-24T08:54:52;9.93;;;8.48;;
45236;SDS011;30973;51.442;3.580;2023-06-24T08:57:21;9.55;;;7.82;;
45236;SDS011;30973;51.442;3.580;2023-06-24T08:59:48;9.27;;;8.30;;
45236;SDS011;30973;51.442;3.580;2023-06-24T09:02:14;10.95;;;8.75;;
45236;SDS011;30973;51.442;3.580;2023-06-24T09:04:41;9.55;;;8.38;;
45236;SDS011;30973;51.442;3.580;2023-06-24T09:07:08;10.98;;;9.18;;
45236;SDS011;30973;51.442;3.580;2023-06-24T09:09:41;13.32;;;9.20;;
45236;SDS011;30973;51.442;3.580;2023-06-24T09:12:09;10.55;;;8.43;;
45236;SDS011;30973;51.442;3.580;2023-06-24T09:14:40;11.40;;;8.55;;
45236;SDS011;30973;51.442;3.580;2023-06-24T09:17:07;11.32;;;8.80;;
45236;SDS011;30973;51.442;3.580;2023-06-24T09:19:35;11.18;;;8.80;;
45236;SDS011;30973;51.442;3.580;2023-06-24T09:22:06;12.68;;;8.50;;
45236;SDS011;30973;51.442;3.580;2023-06-24T09:24:33;11.07;;;8.52;;
45236;SDS011;30973;51.442;3.580;2023-06-24T09:27:00;14.10;;;8.57;;
45236;SDS011;30973;51.442;3.580;2023-06-24T09:29:28;11.75;;;8.77;;
45236;SDS011;30973;51.442;3.580;2023-06-24T09:31:56;12.65;;;8.90;;
45236;SDS011;30973;51.442;3.580;2023-06-24T09:34:25;10.65;;;9.55;;
45236;SDS011;30973;51.442;3.580;2023-06-24T09:36:52;12.55;;;9.20;;
45236;SDS011;30973;51.442;3.580;2023-06-24T09:39:19;13.27;;;9.05;;
45236;SDS011;30973;51.442;3.580;2023-06-24T09:41:59;11.23;;;8.32;;
45236;SDS011;30973;51.442;3.580;2023-06-24T09:44:29;11.88;;;9.00;;
45236;SDS011;30973;51.442;3.580;2023-06-24T09:46:55;12.27;;;9.13;;
45236;SDS011;30973;51.442;3.580;2023-06-24T09:49:22;11.45;;;8.43;;
45236;SDS011;30973;51.442;3.580;2023-06-24T09:51:51;11.85;;;9.20;;
45236;SDS011;30973;51.442;3.580;2023-06-24T09:54:20;11.85;;;8.60;;
45236;SDS011;30973;51.442;3.580;2023-06-24T09:56:48;9.50;;;7.97;;
45236;SDS011;30973;51.442;3.580;2023-06-24T09:59:17;11.88;;;8.20;;
45236;SDS011;30973;51.442;3.580;2023-06-24T10:01:46;12.10;;;8.85;;
45236;SDS011;30973;51.442;3.580;2023-06-24T10:04:16;10.23;;;8.60;;
45236;SDS011;30973;51.442;3.580;2023-06-24T10:06:43;11.05;;;8.90;;
45236;SDS011;30973;51.442;3.580;2023-06-24T10:09:10;13.23;;;9.20;;
45236;SDS011;30973;51.442;3.580;2023-06-24T10:11:43;15.07;;;9.77;;
45236;SDS011;30973;51.442;3.580;2023-06-24T10:14:10;9.85;;;8.52;;
45236;SDS011;30973;51.442;3.580;2023-06-24T10:16:37;10.57;;;9.45;;
45236;SDS011;30973;51.442;3.580;2023-06-24T10:19:18;13.18;;;8.73;;
45236;SDS011;30973;51.442;3.580;2023-06-24T10:21:46;10.93;;;8.60;;
45236;SDS011;30973;51.442;3.580;2023-06-24T10:24:25;10.73;;;7.82;;
45236;SDS011;30973;51.442;3.580;2023-06-24T10:26:54;10.63;;;8.50;;
45236;SDS011;30973;51.442;3.580;2023-06-24T10:29:36;10.52;;;8.88;;
45236;SDS011;30973;51.442;3.580;2023-06-24T10:32:04;10.98;;;8.98;;
45236;SDS011;30973;51.442;3.580;2023-06-24T10:37:01;10.93;;;8.55;;
45236;SDS011;30973;51.442;3.580;2023-06-24T10:39:44;11.48;;;8.75;;
45236;SDS011;30973;51.442;3.580;2023-06-24T10:42:27;12.73;;;8.60;;
45236;SDS011;30973;51.442;3.580;2023-06-24T10:44:54;10.48;;;8.25;;
45236;SDS011;30973;51.442;3.580;2023-06-24T10:47:22;11.48;;;8.82;;
45236;SDS011;30973;51.442;3.580;2023-06-24T10:49:49;10.30;;;8.93;;
45236;SDS011;30973;51.442;3.580;2023-06-24T10:52:18;11.90;;;8.82;;
45236;SDS011;30973;51.442;3.580;2023-06-24T10:54:45;9.93;;;8.75;;
45236;SDS011;30973;51.442;3.580;2023-06-24T10:57:12;11.02;;;8.90;;
45236;SDS011;30973;51.442;3.580;2023-06-24T10:59:42;9.80;;;8.35;;
45236;SDS011;30973;51.442;3.580;2023-06-24T11:02:09;15.85;;;8.93;;
45236;SDS011;30973;51.442;3.580;2023-06-24T11:04:45;12.68;;;8.70;;
45236;SDS011;30973;51.442;3.580;2023-06-24T11:07:12;10.87;;;8.37;;
45236;SDS011;30973;51.442;3.580;2023-06-24T11:09:42;12.07;;;8.98;;
45236;SDS011;30973;51.442;3.580;2023-06-24T11:12:14;14.85;;;8.70;;
45236;SDS011;30973;51.442;3.580;2023-06-24T11:14:40;11.82;;;9.18;;
45236;SDS011;30973;51.442;3.580;2023-06-24T11:17:07;10.60;;;8.80;;
45236;SDS011;30973;51.442;3.580;2023-06-24T11:19:35;11.32;;;9.02;;
45236;SDS011;30973;51.442;3.580;2023-06-24T11:22:06;11.25;;;8.77;;
45236;SDS011;30973;51.442;3.580;2023-06-24T11:24:33;12.45;;;8.75;;
45236;SDS011;30973;51.442;3.580;2023-06-24T11:27:01;11.60;;;8.95;;
45236;SDS011;30973;51.442;3.580;2023-06-24T11:29:28;13.23;;;8.95;;
45236;SDS011;30973;51.442;3.580;2023-06-24T11:31:56;10.73;;;8.80;;
45236;SDS011;30973;51.442;3.580;2023-06-24T11:34:23;10.60;;;8.75;;
45236;SDS011;30973;51.442;3.580;2023-06-24T11:36:49;10.73;;;8.88;;
45236;SDS011;30973;51.442;3.580;2023-06-24T11:39:20;12.32;;;9.15;;
45236;SDS011;30973;51.442;3.580;2023-06-24T11:41:47;11.57;;;8.80;;
45236;SDS011;30973;51.442;3.580;2023-06-24T11:44:13;10.05;;;7.60;;
45236;SDS011;30973;51.442;3.580;2023-06-24T11:46:40;11.60;;;8.10;;
45236;SDS011;30973;51.442;3.580;2023-06-24T11:49:07;10.82;;;8.80;;
45236;SDS011;30973;51.442;3.580;2023-06-24T11:51:34;13.32;;;8.90;;
45236;SDS011;30973;51.442;3.580;2023-06-24T11:54:04;11.15;;;8.27;;
45236;SDS011;30973;51.442;3.580;2023-06-24T11:56:35;10.25;;;9.07;;
45236;SDS011;30973;51.442;3.580;2023-06-24T12:02:04;11.25;;;8.40;;
45236;SDS011;30973;51.442;3.580;2023-06-24T12:04:32;12.65;;;9.18;;
45236;SDS011;30973;51.442;3.580;2023-06-24T12:06:59;11.52;;;8.95;;
45236;SDS011;30973;51.442;3.580;2023-06-24T12:09:26;12.10;;;8.65;;
45236;SDS011;30973;51.442;3.580;2023-06-24T12:11:52;10.05;;;8.48;;
45236;SDS011;30973;51.442;3.580;2023-06-24T12:14:19;12.23;;;8.32;;
45236;SDS011;30973;51.442;3.580;2023-06-24T12:16:46;12.85;;;9.38;;
45236;SDS011;30973;51.442;3.580;2023-06-24T12:19:12;11.65;;;9.45;;
45236;SDS011;30973;51.442;3.580;2023-06-24T12:21:39;12.77;;;9.20;;
45236;SDS011;30973;51.442;3.580;2023-06-24T12:24:05;11.27;;;8.32;;
45236;SDS011;30973;51.442;3.580;2023-06-24T12:26:32;10.80;;;9.45;;
45236;SDS011;30973;51.442;3.580;2023-06-24T12:28:59;11.38;;;8.55;;
45236;SDS011;30973;51.442;3.580;2023-06-24T12:31:26;12.20;;;8.77;;
45236;SDS011;30973;51.442;3.580;2023-06-24T12:33:53;9.30;;;7.85;;
45236;SDS011;30973;51.442;3.580;2023-06-24T12:36:21;8.55;;;7.63;;
45236;SDS011;30973;51.442;3.580;2023-06-24T12:38:47;9.90;;;8.52;;
45236;SDS011;30973;51.442;3.580;2023-06-24T12:41:14;10.77;;;8.18;;
45236;SDS011;30973;51.442;3.580;2023-06-24T12:43:40;9.98;;;8.35;;
45236;SDS011;30973;51.442;3.580;2023-06-24T12:46:07;10.38;;;8.55;;
45236;SDS011;30973;51.442;3.580;2023-06-24T12:48:34;9.48;;;8.15;;
45236;SDS011;30973;51.442;3.580;2023-06-24T12:51:01;10.02;;;7.60;;
45236;SDS011;30973;51.442;3.580;2023-06-24T12:53:27;10.68;;;8.00;;
45236;SDS011;30973;51.442;3.580;2023-06-24T12:55:54;8.65;;;7.03;;
45236;SDS011;30973;51.442;3.580;2023-06-24T12:58:22;10.05;;;7.88;;
45236;SDS011;30973;51.442;3.580;2023-06-24T13:00:49;10.52;;;7.55;;
45236;SDS011;30973;51.442;3.580;2023-06-24T13:03:16;9.93;;;7.97;;
45236;SDS011;30973;51.442;3.580;2023-06-24T13:05:42;12.95;;;8.27;;
45236;SDS011;30973;51.442;3.580;2023-06-24T13:08:09;8.82;;;7.32;;
45236;SDS011;30973;51.442;3.580;2023-06-24T13:10:37;10.75;;;8.25;;
45236;SDS011;30973;51.442;3.580;2023-06-24T13:13:05;12.25;;;8.70;;
45236;SDS011;30973;51.442;3.580;2023-06-24T13:15:31;9.77;;;8.43;;
45236;SDS011;30973;51.442;3.580;2023-06-24T13:17:58;10.40;;;7.78;;
45236;SDS011;30973;51.442;3.580;2023-06-24T13:20:24;10.40;;;7.68;;
45236;SDS011;30973;51.442;3.580;2023-06-24T13:22:51;11.82;;;8.07;;
45236;SDS011;30973;51.442;3.580;2023-06-24T13:25:18;11.20;;;7.65;;
45236;SDS011;30973;51.442;3.580;2023-06-24T13:27:45;11.23;;;8.13;;
45236;SDS011;30973;51.442;3.580;2023-06-24T13:30:11;10.40;;;8.07;;
45236;SDS011;30973;51.442;3.580;2023-06-24T13:32:41;9.52;;;7.85;;
45236;SDS011;30973;51.442;3.580;2023-06-24T13:35:08;10.20;;;7.15;;
45236;SDS011;30973;51.442;3.580;2023-06-24T13:37:34;8.48;;;7.47;;
45236;SDS011;30973;51.442;3.580;2023-06-24T13:40:04;11.35;;;7.78;;
45236;SDS011;30973;51.442;3.580;2023-06-24T13:42:31;10.55;;;7.25;;
45236;SDS011;30973;51.442;3.580;2023-06-24T13:44:57;7.85;;;6.60;;
45236;SDS011;30973;51.442;3.580;2023-06-24T13:47:24;9.15;;;6.85;;
45236;SDS011;30973;51.442;3.580;2023-06-24T13:49:51;10.90;;;7.00;;
45236;SDS011;30973;51.442;3.580;2023-06-24T13:52:17;8.38;;;7.05;;
45236;SDS011;30973;51.442;3.580;2023-06-24T13:54:44;9.18;;;6.57;;
45236;SDS011;30973;51.442;3.580;2023-06-24T13:57:12;7.30;;;6.35;;
45236;SDS011;30973;51.442;3.580;2023-06-24T13:59:38;6.75;;;5.80;;
45236;SDS011;30973;51.442;3.580;2023-06-24T14:02:05;8.68;;;6.00;;
45236;SDS011;30973;51.442;3.580;2023-06-24T14:04:32;6.60;;;5.15;;
45236;SDS011;30973;51.442;3.580;2023-06-24T14:06:58;10.10;;;6.18;;
45236;SDS011;30973;51.442;3.580;2023-06-24T14:09:25;11.02;;;7.70;;
45236;SDS011;30973;51.442;3.580;2023-06-24T14:11:51;7.78;;;6.97;;
45236;SDS011;30973;51.442;3.580;2023-06-24T14:14:18;9.50;;;6.75;;
45236;SDS011;30973;51.442;3.580;2023-06-24T14:16:45;8.57;;;5.78;;
45236;SDS011;30973;51.442;3.580;2023-06-24T14:19:12;8.10;;;6.15;;
45236;SDS011;30973;51.442;3.580;2023-06-24T14:21:38;7.53;;;5.40;;
45236;SDS011;30973;51.442;3.580;2023-06-24T14:24:05;7.05;;;6.00;;
45236;SDS011;30973;51.442;3.580;2023-06-24T14:26:42;6.97;;;4.88;;
45236;SDS011;30973;51.442;3.580;2023-06-24T14:29:08;8.70;;;4.43;;
45236;SDS011;30973;51.442;3.580;2023-06-24T14:31:35;7.18;;;4.68;;
45236;SDS011;30973;51.442;3.580;2023-06-24T14:34:01;6.40;;;4.60;;
45236;SDS011;30973;51.442;3.580;2023-06-24T14:36:28;5.93;;;4.28;;
45236;SDS011;30973;51.442;3.580;2023-06-24T14:38:55;9.27;;;4.40;;
45236;SDS011;30973;51.442;3.580;2023-06-24T14:41:21;6.65;;;4.00;;
45236;SDS011;30973;51.442;3.580;2023-06-24T14:43:48;7.50;;;4.53;;
45236;SDS011;30973;51.442;3.580;2023-06-24T14:46:14;5.72;;;3.88;;
45236;SDS011;30973;51.442;3.580;2023-06-24T14:48:41;5.22;;;3.88;;
45236;SDS011;30973;51.442;3.580;2023-06-24T14:51:07;6.00;;;3.92;;
45236;SDS011;30973;51.442;3.580;2023-06-24T14:53:34;6.88;;;4.50;;
45236;SDS011;30973;51.442;3.580;2023-06-24T14:56:01;5.32;;;4.32;;